Time;durP1;ratioP1;P1;durP2;ratioP2;P2;SDS_P1;SDS_P2;PMS_P1;PMS_P2;Temp;Humidity;BMP_temperature;BMP_pressure;BME280_temperature;BME280_humidity;BME280_pressure;Samples;Min_cycle;Max_cycle;Signal;HPM_P1;HPM_P2
2022/07/26 00:02:09;;;;;;;4.13;2.40;;;22.50;99.90;;;;;;5001183;28;20202;-91
2022/07/26 00:04:35;;;;;;;3.95;2.15;;;22.50;99.90;;;;;;5000642;28;20174;-91
2022/07/26 00:07:01;;;;;;;3.92;2.28;;;22.50;99.90;;;;;;5000912;28;20183;-92
2022/07/26 00:09:27;;;;;;;3.38;2.22;;;22.40;99.90;;;;;;5000707;28;20179;-92
2022/07/26 00:11:53;;;;;;;2.90;2.15;;;22.30;99.90;;;;;;4999801;28;20234;-92
2022/07/26 00:14:19;;;;;;;2.92;2.13;;;22.30;99.90;;;;;;5000162;28;20218;-92
2022/07/26 00:16:45;;;;;;;3.00;2.25;;;22.30;99.90;;;;;;5000186;28;20191;-92
2022/07/26 00:19:11;;;;;;;3.38;2.03;;;22.30;99.90;;;;;;5000061;28;20222;-91
2022/07/26 00:21:37;;;;;;;4.28;2.10;;;22.40;99.90;;;;;;5000279;28;20245;-92
2022/07/26 00:24:04;;;;;;;3.30;2.00;;;22.50;99.90;;;;;;5000288;28;20175;-92
2022/07/26 00:26:30;;;;;;;5.20;2.45;;;22.50;99.90;;;;;;5000202;28;20182;-91
2022/07/26 00:28:56;;;;;;;4.85;2.03;;;22.50;99.90;;;;;;5001444;28;20191;-92
2022/07/26 00:31:22;;;;;;;3.67;2.40;;;22.60;99.90;;;;;;4999471;28;20214;-92
2022/07/26 00:33:48;;;;;;;3.03;2.10;;;22.60;99.90;;;;;;4989657;28;20183;-92
2022/07/26 00:36:14;;;;;;;3.30;2.00;;;22.60;99.90;;;;;;4980412;28;20269;-92
2022/07/26 00:38:40;;;;;;;4.05;2.10;;;22.70;99.90;;;;;;4980030;28;20262;-92
2022/07/26 00:41:06;;;;;;;8.45;2.22;;;22.70;99.90;;;;;;4980656;28;20203;-93
2022/07/26 00:43:33;;;;;;;3.70;1.90;;;22.70;99.90;;;;;;4980070;28;20183;-92
2022/07/26 00:45:59;;;;;;;3.15;1.70;;;22.70;99.90;;;;;;4980185;28;20186;-92
2022/07/26 00:48:25;;;;;;;4.35;1.77;;;22.70;99.90;;;;;;4980038;28;20179;-92
2022/07/26 00:50:54;;;;;;;2.92;1.90;;;22.70;99.90;;;;;;4979904;28;20706;-92
2022/07/26 00:53:22;;;;;;;2.35;1.98;;;22.70;99.90;;;;;;4980285;28;20195;-92
2022/07/26 00:55:51;;;;;;;4.63;1.90;;;22.70;99.90;;;;;;4996510;28;20187;-91
2022/07/26 00:58:20;;;;;;;3.03;1.80;;;22.70;99.90;;;;;;4979969;28;20183;-92
2022/07/26 01:00:47;;;;;;;4.20;2.00;;;22.60;99.90;;;;;;4996343;28;20309;-91
2022/07/26 01:03:14;;;;;;;2.25;1.80;;;22.60;99.90;;;;;;4979697;28;20310;-92
2022/07/26 01:05:41;;;;;;;2.78;1.67;;;22.70;99.90;;;;;;4979501;28;20184;-92
2022/07/26 01:08:11;;;;;;;3.75;1.63;;;22.70;99.90;;;;;;5003832;28;20175;-92
2022/07/26 01:10:38;;;;;;;1.77;1.67;;;22.70;99.90;;;;;;4998787;28;20187;-93
2022/07/26 01:13:05;;;;;;;4.03;1.80;;;22.70;99.90;;;;;;4996366;28;20182;-91
2022/07/26 01:15:37;;;;;;;3.30;1.80;;;22.70;99.90;;;;;;5007677;28;20274;-92
2022/07/26 01:18:04;;;;;;;4.82;2.10;;;22.70;99.90;;;;;;5007874;28;20179;-91
2022/07/26 01:20:30;;;;;;;2.20;1.67;;;22.70;99.90;;;;;;4979482;28;20249;-92
2022/07/26 01:22:57;;;;;;;2.88;1.80;;;22.70;99.90;;;;;;4979112;28;20286;-92
2022/07/26 01:25:31;;;;;;;2.33;1.40;;;22.70;99.90;;;;;;4992033;28;20277;-92
2022/07/26 01:27:57;;;;;;;3.40;1.33;;;22.70;99.90;;;;;;4976708;28;20191;-92
2022/07/26 01:30:23;;;;;;;2.55;1.63;;;22.70;99.90;;;;;;4975533;28;20200;-92
2022/07/26 01:32:49;;;;;;;3.70;1.60;;;22.70;99.90;;;;;;4959668;28;20231;-92
2022/07/26 01:35:15;;;;;;;3.70;1.73;;;22.70;99.90;;;;;;4959860;28;20180;-92
2022/07/26 01:37:41;;;;;;;2.15;1.73;;;22.70;99.90;;;;;;4960200;28;20248;-92
2022/07/26 01:40:08;;;;;;;2.35;1.48;;;22.60;99.90;;;;;;4959782;28;20494;-92
2022/07/26 01:42:34;;;;;;;3.70;1.45;;;22.60;99.90;;;;;;4959374;28;20215;-92
2022/07/26 01:44:59;;;;;;;3.92;1.80;;;22.60;99.90;;;;;;4959473;28;20210;-92
2022/07/26 01:47:25;;;;;;;1.73;1.42;;;22.60;99.90;;;;;;4975673;28;20179;-92
2022/07/26 01:49:51;;;;;;;1.95;1.38;;;22.60;99.90;;;;;;4959884;28;20190;-93
2022/07/26 01:52:17;;;;;;;1.60;1.45;;;22.60;99.90;;;;;;4977688;28;20250;-92
2022/07/26 01:54:43;;;;;;;4.13;1.40;;;22.60;99.90;;;;;;4995136;28;20187;-92
2022/07/26 01:57:09;;;;;;;2.90;1.50;;;22.60;99.90;;;;;;4995389;28;20191;-92
2022/07/26 01:59:35;;;;;;;2.55;1.40;;;22.70;99.90;;;;;;4994963;28;20187;-92
2022/07/26 02:02:01;;;;;;;3.25;1.33;;;22.60;99.90;;;;;;4997826;28;20265;-92
2022/07/26 02:05:13;;;;;;;2.05;1.52;;;22.60;99.90;;;;;;4998441;28;20182;-92
2022/07/26 02:07:13;;;;;;;1.52;1.40;;;22.70;99.90;;;;;;5003774;28;20200;-92
2022/07/26 02:09:40;;;;;;;3.63;1.75;;;22.60;99.90;;;;;;4989830;28;20624;-92
2022/07/26 02:12:06;;;;;;;3.35;1.60;;;22.60;99.90;;;;;;4975298;28;20207;-91
2022/07/26 02:14:32;;;;;;;1.48;1.33;;;22.60;99.90;;;;;;4975501;28;20219;-91
2022/07/26 02:16:58;;;;;;;1.55;1.42;;;22.60;99.90;;;;;;4991506;28;20184;-92
2022/07/26 02:19:29;;;;;;;1.85;1.60;;;22.60;99.90;;;;;;4974913;28;20180;-92
2022/07/26 02:21:55;;;;;;;2.35;1.40;;;22.60;99.90;;;;;;4959102;28;20214;-92
2022/07/26 02:24:21;;;;;;;1.50;1.30;;;22.50;99.90;;;;;;4974945;28;20172;-92
2022/07/26 02:26:47;;;;;;;2.22;1.58;;;22.50;99.90;;;;;;4991509;28;20188;-92
2022/07/26 02:29:13;;;;;;;1.58;1.35;;;22.50;99.90;;;;;;4991082;28;20184;-92
2022/07/26 02:31:39;;;;;;;1.60;1.50;;;22.50;99.90;;;;;;4974785;28;20215;-92
2022/07/26 02:34:05;;;;;;;1.63;1.52;;;22.40;99.90;;;;;;4991142;28;20231;-92
2022/07/26 02:36:31;;;;;;;2.05;1.65;;;22.40;99.90;;;;;;4975166;28;20184;-92
2022/07/26 02:38:57;;;;;;;3.90;1.50;;;22.40;99.90;;;;;;4958865;28;20179;-92
2022/07/26 02:41:23;;;;;;;1.85;1.40;;;22.40;99.90;;;;;;4974677;28;20263;-92
2022/07/26 02:43:48;;;;;;;2.13;1.60;;;22.40;99.90;;;;;;4961289;28;20224;-92
2022/07/26 02:46:14;;;;;;;2.65;1.55;;;22.40;99.90;;;;;;4978911;28;20243;-92
2022/07/26 02:48:40;;;;;;;3.65;1.67;;;22.40;99.90;;;;;;4995236;28;20283;-92
2022/07/26 02:51:06;;;;;;;1.83;1.20;;;22.50;99.90;;;;;;4978788;28;20326;-91
2022/07/26 02:53:32;;;;;;;3.13;1.30;;;22.50;99.90;;;;;;4996009;28;20210;-92
2022/07/26 02:55:58;;;;;;;1.55;1.40;;;22.50;99.90;;;;;;4998161;28;20206;-92
2022/07/26 02:58:25;;;;;;;1.88;1.10;;;22.50;99.90;;;;;;5001352;28;20269;-92
2022/07/26 03:00:52;;;;;;;2.65;1.10;;;22.50;99.90;;;;;;5001648;28;20190;-91
2022/07/26 03:03:18;;;;;;;2.70;1.48;;;22.40;99.90;;;;;;4980796;28;20243;-92
2022/07/26 03:05:43;;;;;;;1.42;1.20;;;22.30;99.90;;;;;;5001442;28;20202;-92
2022/07/26 03:08:09;;;;;;;1.88;1.30;;;22.30;99.90;;;;;;5001613;28;20201;-92
2022/07/26 03:10:35;;;;;;;1.45;1.35;;;22.20;99.90;;;;;;5001763;28;20175;-92
2022/07/26 03:13:01;;;;;;;1.83;1.52;;;22.20;99.90;;;;;;4983342;28;20175;-92
2022/07/26 03:15:28;;;;;;;3.17;1.45;;;22.10;99.90;;;;;;4983787;28;20186;-92
2022/07/26 03:17:56;;;;;;;2.00;1.30;;;22.10;99.90;;;;;;4999803;28;20179;-92
2022/07/26 03:20:25;;;;;;;2.63;1.55;;;22.10;99.90;;;;;;4983140;28;20199;-92
2022/07/26 03:22:52;;;;;;;3.38;1.90;;;22.10;99.90;;;;;;4979951;28;20206;-92
2022/07/26 03:25:18;;;;;;;1.70;1.48;;;22.10;99.90;;;;;;4980411;28;20176;-92
2022/07/26 03:27:43;;;;;;;1.60;1.50;;;22.00;99.90;;;;;;4980244;28;20290;-92
2022/07/26 03:30:10;;;;;;;2.03;1.30;;;22.00;99.90;;;;;;4979965;28;20282;-92
2022/07/26 03:32:36;;;;;;;3.60;1.55;;;22.00;99.90;;;;;;4980178;28;20330;-92
2022/07/26 03:35:04;;;;;;;2.28;1.60;;;22.00;99.90;;;;;;4979834;28;20188;-91
2022/07/26 03:37:48;;;;;;;2.63;1.40;;;22.10;99.90;;;;;;4979832;28;20195;-92
2022/07/26 03:40:15;;;;;;;1.40;1.27;;;22.10;99.90;;;;;;4985309;28;20196;-92
2022/07/26 03:42:45;;;;;;;1.45;1.30;;;22.20;99.90;;;;;;4980124;28;20211;-92
2022/07/26 03:45:15;;;;;;;1.90;1.30;;;22.20;99.90;;;;;;4963641;28;20191;-92
2022/07/26 03:47:47;;;;;;;2.00;1.45;;;22.20;99.90;;;;;;4979831;28;20188;-92
2022/07/26 03:50:18;;;;;;;1.50;1.40;;;22.20;99.90;;;;;;4975276;28;20204;-92
2022/07/26 03:52:44;;;;;;;1.50;1.38;;;22.20;99.90;;;;;;5001503;28;20180;-92
2022/07/26 03:57:55;;;;;;;1.88;1.38;;;22.20;99.90;;;;;;4999340;28;20184;-92
2022/07/26 04:00:25;;;;;;;1.58;1.40;;;22.30;99.90;;;;;;4982072;28;20188;-85
2022/07/26 04:02:51;;;;;;;1.70;1.60;;;22.30;99.90;;;;;;4982795;28;20203;-91
2022/07/26 04:05:17;;;;;;;3.65;1.50;;;22.30;99.90;;;;;;4982234;28;20329;-89
2022/07/26 04:07:44;;;;;;;1.85;1.60;;;22.20;99.90;;;;;;4990679;28;20179;-89
2022/07/26 04:10:11;;;;;;;1.48;1.17;;;22.20;99.90;;;;;;4977417;28;20188;-85
2022/07/26 04:12:38;;;;;;;1.83;1.38;;;22.20;99.90;;;;;;4978459;28;20203;-85
2022/07/26 04:15:05;;;;;;;1.60;1.50;;;22.10;99.90;;;;;;4962360;28;20186;-85
2022/07/26 04:17:39;;;;;;;2.55;1.50;;;22.00;99.90;;;;;;4978560;28;20180;-85
2022/07/26 04:20:07;;;;;;;1.50;1.40;;;22.10;99.90;;;;;;4978642;28;20213;-85
2022/07/26 04:22:35;;;;;;;1.80;1.58;;;22.10;99.90;;;;;;4978412;28;20212;-85
2022/07/26 04:25:03;;;;;;;2.90;1.58;;;22.10;99.90;;;;;;4978294;28;20215;-85
2022/07/26 04:27:29;;;;;;;1.55;1.45;;;22.10;99.90;;;;;;4995129;28;20175;-84
2022/07/26 04:29:55;;;;;;;3.20;1.55;;;22.00;99.90;;;;;;4989271;28;20176;-85
2022/07/26 04:32:21;;;;;;;2.75;1.80;;;21.90;99.90;;;;;;4984293;28;20209;-91
2022/07/26 04:34:47;;;;;;;2.20;1.50;;;21.90;99.90;;;;;;4979175;28;20184;-91
2022/07/26 04:37:27;;;;;;;2.35;1.60;;;21.80;99.90;;;;;;4996455;28;20190;-91
2022/07/26 04:39:52;;;;;;;3.83;1.60;;;21.80;99.90;;;;;;4981469;28;20221;-90
2022/07/26 04:42:18;;;;;;;3.65;1.67;;;21.80;99.90;;;;;;4981558;28;20218;-91
2022/07/26 04:44:44;;;;;;;2.85;1.60;;;21.80;99.90;;;;;;4981688;28;20270;-91
2022/07/26 04:47:10;;;;;;;1.83;1.40;;;21.80;99.90;;;;;;4997288;28;20206;-91
2022/07/26 04:49:36;;;;;;;3.25;1.70;;;21.80;99.90;;;;;;5000865;28;20215;-91
2022/07/26 04:52:02;;;;;;;2.17;1.80;;;21.80;99.90;;;;;;5000977;28;20206;-91
2022/07/26 04:54:28;;;;;;;2.63;1.70;;;21.80;99.90;;;;;;4981714;28;20270;-91
2022/07/26 04:56:54;;;;;;;3.03;1.65;;;21.90;99.90;;;;;;4981047;28;20263;-91
2022/07/26 04:59:20;;;;;;;2.38;1.70;;;21.80;99.90;;;;;;4997406;28;20179;-91
2022/07/26 05:01:46;;;;;;;1.92;1.73;;;21.80;99.90;;;;;;4980787;28;20217;-92
2022/07/26 05:04:12;;;;;;;2.80;1.45;;;21.90;99.90;;;;;;4981888;28;20175;-92
2022/07/26 05:06:38;;;;;;;2.17;1.80;;;21.80;99.90;;;;;;4992515;28;20644;-91
2022/07/26 05:09:04;;;;;;;2.70;1.75;;;21.80;99.90;;;;;;5006954;28;20175;-91
2022/07/26 05:11:38;;;;;;;2.05;1.85;;;21.90;99.90;;;;;;5001775;28;20202;-93
2022/07/26 05:14:04;;;;;;;2.65;1.80;;;21.90;99.90;;;;;;5001668;28;20515;-93
2022/07/26 05:16:30;;;;;;;3.08;1.60;;;21.90;99.90;;;;;;5001194;28;20274;-92
2022/07/26 05:18:56;;;;;;;1.80;1.70;;;21.90;99.90;;;;;;5000952;28;20210;-92
2022/07/26 05:21:22;;;;;;;3.33;1.77;;;21.90;99.90;;;;;;4990604;28;20219;-92
2022/07/26 05:23:47;;;;;;;2.15;1.92;;;21.90;99.90;;;;;;5013640;28;20270;-86
2022/07/26 05:26:15;;;;;;;3.22;1.40;;;21.90;99.90;;;;;;4985962;28;20302;-92
2022/07/26 05:28:41;;;;;;;2.28;2.00;;;22.00;99.90;;;;;;4979382;28;20208;-92
2022/07/26 05:31:07;;;;;;;2.00;1.80;;;22.00;99.90;;;;;;4978102;28;20220;-92
2022/07/26 05:33:34;;;;;;;2.25;1.77;;;22.10;99.90;;;;;;4989538;28;20190;-92
2022/07/26 05:36:02;;;;;;;3.35;1.67;;;22.20;99.90;;;;;;5013950;28;20202;-92
2022/07/26 05:38:28;;;;;;;2.47;1.73;;;22.30;99.90;;;;;;4981171;28;20198;-92
2022/07/26 05:40:54;;;;;;;1.83;1.73;;;22.30;99.90;;;;;;4993324;28;20194;-92
2022/07/26 05:43:20;;;;;;;2.03;1.75;;;22.40;99.90;;;;;;4991460;28;20217;-85
2022/07/26 05:45:46;;;;;;;3.65;2.00;;;22.50;99.90;;;;;;4989167;28;20178;-93
2022/07/26 05:48:12;;;;;;;2.80;1.83;;;22.60;99.90;;;;;;4981299;28;20317;-92
2022/07/26 05:50:38;;;;;;;2.97;2.08;;;22.60;99.90;;;;;;4979891;28;20261;-92
2022/07/26 05:53:04;;;;;;;2.10;1.90;;;22.50;99.90;;;;;;4979782;28;20250;-92
2022/07/26 05:55:45;;;;;;;2.88;2.47;;;22.60;99.90;;;;;;4962848;28;20211;-94
2022/07/26 05:58:11;;;;;;;4.82;2.13;;;22.50;99.90;;;;;;4984300;28;20183;-93
2022/07/26 06:00:38;;;;;;;2.38;2.00;;;22.60;99.90;;;;;;4985358;28;20259;-93
2022/07/26 06:03:20;;;;;;;2.90;2.13;;;22.50;99.90;;;;;;4979177;28;20242;-93
2022/07/26 06:05:50;;;;;;;3.55;2.55;;;22.60;99.90;;;;;;4979554;28;20242;-92
2022/07/26 06:08:17;;;;;;;3.70;2.30;;;22.40;99.90;;;;;;4991835;28;20216;-92
2022/07/26 06:10:44;;;;;;;4.07;2.40;;;22.50;99.90;;;;;;4979090;28;20214;-92
2022/07/26 06:13:10;;;;;;;3.58;2.28;;;22.50;99.90;;;;;;4979143;28;20278;-93
2022/07/26 06:15:37;;;;;;;3.92;2.40;;;22.40;99.90;;;;;;4978859;28;20183;-92
2022/07/26 06:18:04;;;;;;;2.80;2.15;;;22.40;99.90;;;;;;4978687;28;20230;-93
2022/07/26 06:20:30;;;;;;;5.38;2.90;;;22.30;99.90;;;;;;4978597;28;20203;-92
2022/07/26 06:22:57;;;;;;;3.80;2.60;;;22.20;99.90;;;;;;4978604;28;20211;-92
2022/07/26 06:25:26;;;;;;;3.03;2.30;;;22.20;99.90;;;;;;4978604;28;20183;-93
2022/07/26 06:27:52;;;;;;;3.20;2.55;;;22.20;99.90;;;;;;4979316;28;20206;-92
2022/07/26 06:30:18;;;;;;;3.47;2.40;;;22.20;99.90;;;;;;4978979;28;20198;-93
2022/07/26 06:32:44;;;;;;;3.08;2.30;;;22.20;99.90;;;;;;4978871;28;20199;-92
2022/07/26 06:35:11;;;;;;;2.85;2.40;;;22.30;99.90;;;;;;4978575;28;20179;-92
2022/07/26 06:37:38;;;;;;;3.70;2.53;;;22.30;99.90;;;;;;4985092;28;20194;-92
2022/07/26 06:40:06;;;;;;;3.65;2.47;;;22.30;99.90;;;;;;4998102;28;20188;-92
2022/07/26 06:42:32;;;;;;;4.35;2.38;;;22.40;99.90;;;;;;4997898;28;20241;-92
2022/07/26 06:44:59;;;;;;;2.45;2.28;;;22.30;99.90;;;;;;4998051;28;20181;-92
2022/07/26 06:47:26;;;;;;;2.70;2.20;;;22.40;99.90;;;;;;4997982;28;20174;-92
2022/07/26 06:49:51;;;;;;;3.42;2.28;;;22.40;99.90;;;;;;4998432;28;20182;-92
2022/07/26 06:52:19;;;;;;;3.33;2.10;;;22.40;99.90;;;;;;5012981;28;20201;-92
2022/07/26 06:54:45;;;;;;;3.85;2.35;;;22.40;99.90;;;;;;4998109;28;20202;-91
2022/07/26 06:57:11;;;;;;;3.42;2.22;;;22.40;99.90;;;;;;4998037;28;20203;-92
2022/07/26 06:59:37;;;;;;;2.97;2.20;;;22.50;99.90;;;;;;4998167;28;20229;-93
2022/07/26 07:02:04;;;;;;;3.85;2.22;;;22.50;99.90;;;;;;4998053;28;20222;-91
2022/07/26 07:04:31;;;;;;;3.08;2.03;;;22.50;99.90;;;;;;5011962;28;20170;-92
2022/07/26 07:07:02;;;;;;;3.72;2.40;;;22.70;99.90;;;;;;5003411;28;20229;-92
2022/07/26 07:09:28;;;;;;;2.35;1.77;;;22.80;99.90;;;;;;4979294;28;20175;-92
2022/07/26 07:11:54;;;;;;;3.65;2.03;;;23.00;99.90;;;;;;4979138;28;20203;-92
2022/07/26 07:14:20;;;;;;;7.30;1.92;;;23.30;99.90;;;;;;4979063;28;20197;-91
2022/07/26 07:16:46;;;;;;;3.00;1.77;;;23.50;99.90;;;;;;4978758;28;20183;-92
2022/07/26 07:19:12;;;;;;;2.60;1.80;;;23.60;99.90;;;;;;4978127;28;20279;-92
2022/07/26 07:21:38;;;;;;;3.70;1.90;;;23.70;99.90;;;;;;4979236;28;20259;-92
2022/07/26 07:24:05;;;;;;;2.85;1.73;;;23.80;99.90;;;;;;4979261;28;20186;-92
2022/07/26 07:26:31;;;;;;;4.10;1.88;;;24.10;99.90;;;;;;4978616;28;20195;-92
2022/07/26 07:28:57;;;;;;;3.30;1.30;;;24.20;99.90;;;;;;4980202;28;20183;-92
2022/07/26 07:31:24;;;;;;;1.52;1.42;;;24.40;99.90;;;;;;4982711;28;20213;-92
2022/07/26 07:33:50;;;;;;;2.30;1.35;;;24.40;99.90;;;;;;4983071;28;20256;-93
2022/07/26 07:36:16;;;;;;;2.67;1.58;;;24.60;99.90;;;;;;4983404;28;20199;-92
2022/07/26 07:38:44;;;;;;;3.30;1.48;;;24.70;99.90;;;;;;4982630;28;20196;-92
2022/07/26 07:41:10;;;;;;;3.85;1.48;;;24.80;99.90;;;;;;4982456;28;20293;-93
2022/07/26 07:43:36;;;;;;;3.20;1.60;;;24.80;99.90;;;;;;4981618;28;20299;-92
2022/07/26 07:46:03;;;;;;;2.20;1.42;;;24.90;99.90;;;;;;4981807;28;20206;-92
2022/07/26 07:48:29;;;;;;;4.47;1.48;;;24.90;99.90;;;;;;4981427;28;20183;-92
2022/07/26 07:50:55;;;;;;;2.30;1.50;;;25.00;99.90;;;;;;4981704;28;20203;-92
2022/07/26 07:53:21;;;;;;;4.43;1.63;;;24.90;99.80;;;;;;4982044;28;20175;-92
2022/07/26 07:55:47;;;;;;;5.35;1.58;;;24.90;99.90;;;;;;4981177;28;20223;-93
2022/07/26 07:58:14;;;;;;;5.32;1.55;;;25.00;99.90;;;;;;4981672;28;20233;-92
2022/07/26 08:00:40;;;;;;;3.08;1.30;;;25.00;99.70;;;;;;4981286;28;20216;-92
2022/07/26 08:03:06;;;;;;;5.13;1.50;;;25.20;99.40;;;;;;4981241;28;20244;-92
2022/07/26 08:05:33;;;;;;;4.10;1.50;;;25.20;98.70;;;;;;4981232;28;20188;-92
2022/07/26 08:07:59;;;;;;;2.97;1.42;;;25.10;99.30;;;;;;4981924;28;20187;-93
2022/07/26 08:10:25;;;;;;;2.72;1.30;;;25.30;98.60;;;;;;4981721;28;20189;-92
2022/07/26 08:12:51;;;;;;;3.03;1.50;;;25.30;98.40;;;;;;4981802;28;20261;-92
2022/07/26 08:15:17;;;;;;;2.35;1.33;;;25.40;98.90;;;;;;4981844;28;20219;-93
2022/07/26 08:17:43;;;;;;;2.00;1.40;;;25.60;98.80;;;;;;4981036;28;20175;-91
2022/07/26 08:20:09;;;;;;;1.52;1.40;;;25.70;98.40;;;;;;4981713;28;20187;-92
2022/07/26 08:22:35;;;;;;;2.95;1.50;;;25.80;97.70;;;;;;4981403;28;20274;-92
2022/07/26 08:25:01;;;;;;;2.10;1.45;;;25.80;97.30;;;;;;4980571;28;20188;-92
2022/07/26 08:27:27;;;;;;;3.58;1.65;;;25.80;97.30;;;;;;4981105;28;20189;-93
2022/07/26 08:29:53;;;;;;;3.33;1.27;;;26.00;98.10;;;;;;4981614;28;20257;-92
2022/07/26 08:32:19;;;;;;;3.70;1.60;;;26.10;96.90;;;;;;4981080;28;20234;-92
2022/07/26 08:34:45;;;;;;;2.72;1.52;;;26.10;97.90;;;;;;4980708;28;20180;-93
2022/07/26 08:37:11;;;;;;;3.00;1.45;;;26.10;98.10;;;;;;4980629;28;20199;-92
2022/07/26 08:39:37;;;;;;;3.65;1.40;;;25.90;97.00;;;;;;4980984;28;20187;-92
2022/07/26 08:42:03;;;;;;;2.55;1.60;;;25.70;97.00;;;;;;4979630;28;20233;-92
2022/07/26 08:44:29;;;;;;;7.85;1.52;;;25.50;97.70;;;;;;4980429;28;20171;-92
2022/07/26 08:46:55;;;;;;;3.58;1.40;;;25.30;96.70;;;;;;4980090;28;20187;-92
2022/07/26 08:49:21;;;;;;;2.88;1.58;;;25.10;97.20;;;;;;4980764;28;20207;-93
2022/07/26 08:51:47;;;;;;;2.17;1.38;;;25.20;96.20;;;;;;4980745;28;20209;-93
2022/07/26 08:54:14;;;;;;;2.40;1.50;;;25.40;96.30;;;;;;4980521;28;20214;-92
2022/07/26 08:56:48;;;;;;;3.70;1.70;;;25.70;96.70;;;;;;4980721;28;20215;-92
2022/07/26 08:59:17;;;;;;;2.15;1.20;;;26.30;96.40;;;;;;4980845;28;20175;-92
2022/07/26 09:02:03;;;;;;;1.70;1.20;;;26.40;94.60;;;;;;4980066;28;20208;-92
2022/07/26 09:04:31;;;;;;;2.65;1.42;;;26.60;94.90;;;;;;4980566;28;20199;-92
2022/07/26 09:07:00;;;;;;;2.20;1.30;;;26.50;94.10;;;;;;4981593;28;20187;-92
2022/07/26 09:09:27;;;;;;;2.55;1.30;;;26.30;94.40;;;;;;5000224;28;20178;-92
2022/07/26 09:11:54;;;;;;;1.60;1.30;;;26.00;94.80;;;;;;5000062;28;20240;-93
2022/07/26 09:14:21;;;;;;;3.75;1.23;;;26.00;95.60;;;;;;5000130;28;20183;-92
2022/07/26 09:16:58;;;;;;;2.80;1.15;;;26.30;95.30;;;;;;5000209;28;20254;-93
2022/07/26 09:19:26;;;;;;;2.63;1.35;;;26.30;95.20;;;;;;5000208;28;20182;-93
2022/07/26 09:21:54;;;;;;;3.35;1.30;;;26.40;95.20;;;;;;5000482;28;20220;-92
2022/07/26 09:24:35;;;;;;;1.88;1.05;;;26.50;94.80;;;;;;4999713;28;20178;-92
2022/07/26 09:27:03;;;;;;;2.47;1.27;;;26.70;95.80;;;;;;4999839;28;20171;-93
2022/07/26 09:29:29;;;;;;;2.15;1.15;;;26.90;94.90;;;;;;5000109;28;20198;-93
2022/07/26 09:32:15;;;;;;;2.97;1.40;;;27.20;94.30;;;;;;5000323;28;20282;-93
2022/07/26 09:34:42;;;;;;;2.10;1.20;;;27.40;95.20;;;;;;4999444;28;20213;-93
2022/07/26 09:37:08;;;;;;;4.20;1.40;;;27.50;94.30;;;;;;4996894;28;20191;-93
2022/07/26 09:39:58;;;;;;;2.72;1.15;;;27.40;94.20;;;;;;4980066;28;20199;-93
2022/07/26 09:42:25;;;;;;;2.83;1.15;;;27.10;92.20;;;;;;4979510;28;20241;-92
2022/07/26 09:44:52;;;;;;;2.38;1.42;;;27.00;92.10;;;;;;4979463;28;20230;-92
2022/07/26 09:47:18;;;;;;;2.13;1.30;;;27.10;93.20;;;;;;4979641;28;20620;-91
2022/07/26 09:49:44;;;;;;;4.25;1.27;;;26.90;93.30;;;;;;4979458;28;20187;-92
2022/07/26 09:52:16;;;;;;;6.75;1.10;;;26.90;93.70;;;;;;4979393;28;20214;-92
2022/07/26 09:54:45;;;;;;;1.95;1.08;;;26.80;93.80;;;;;;4979105;28;20202;-92
2022/07/26 09:57:14;;;;;;;3.38;1.23;;;26.70;94.10;;;;;;4979866;28;20218;-93
2022/07/26 09:59:41;;;;;;;2.78;1.38;;;26.80;93.90;;;;;;4982459;28;20180;-88
2022/07/26 10:02:07;;;;;;;2.67;1.13;;;27.10;93.90;;;;;;4981043;28;20337;-92
2022/07/26 10:04:34;;;;;;;2.75;1.33;;;27.20;92.80;;;;;;4987963;28;20188;-92
2022/07/26 10:07:01;;;;;;;2.58;1.20;;;26.80;91.40;;;;;;4988024;28;20172;-92
2022/07/26 10:09:35;;;;;;;1.55;1.05;;;26.80;93.20;;;;;;4987308;28;20266;-92
2022/07/26 10:12:05;;;;;;;1.27;1.10;;;27.00;92.60;;;;;;4979770;28;20195;-91
2022/07/26 10:14:43;;;;;;;3.20;1.38;;;27.20;92.20;;;;;;4966308;28;20231;-92
2022/07/26 10:17:41;;;;;;;2.33;1.25;;;26.90;92.00;;;;;;4972104;28;20274;-92
2022/07/26 10:20:09;;;;;;;2.30;1.20;;;26.90;91.80;;;;;;4970240;28;20183;-92
2022/07/26 10:22:47;;;;;;;4.63;1.20;;;27.00;91.60;;;;;;4991452;28;20308;-92
2022/07/26 10:25:49;;;;;;;2.60;1.20;;;26.90;91.10;;;;;;4991007;28;20213;-92
2022/07/26 10:28:37;;;;;;;3.35;1.30;;;27.00;92.00;;;;;;4983917;28;20267;-92
2022/07/26 10:31:28;;;;;;;2.47;1.13;;;27.50;93.00;;;;;;4962770;28;20220;-92
2022/07/26 10:33:55;;;;;;;1.30;0.98;;;27.80;92.00;;;;;;4961331;28;20192;-90
2022/07/26 10:36:33;;;;;;;1.52;1.05;;;28.00;90.70;;;;;;4993812;28;20178;-93
2022/07/26 10:39:07;;;;;;;2.08;1.08;;;28.00;91.50;;;;;;5002223;28;20174;-92
2022/07/26 10:41:34;;;;;;;1.92;1.23;;;28.40;91.40;;;;;;4995537;28;20199;-93
2022/07/26 10:44:16;;;;;;;4.70;1.30;;;28.40;89.20;;;;;;4984798;28;20215;-93
2022/07/26 10:46:55;;;;;;;1.60;0.95;;;28.20;89.40;;;;;;4981790;28;20206;-93
2022/07/26 10:49:35;;;;;;;3.33;1.20;;;28.10;89.90;;;;;;4981764;28;20179;-93
2022/07/26 10:52:12;;;;;;;2.72;1.02;;;28.20;90.70;;;;;;4981533;28;20282;-93
2022/07/26 10:54:56;;;;;;;3.17;1.20;;;28.40;91.00;;;;;;4980917;28;20234;-92
2022/07/26 10:57:38;;;;;;;1.35;1.02;;;28.30;90.30;;;;;;4981291;28;20339;-92
2022/07/26 11:00:18;;;;;;;1.80;1.00;;;28.30;91.00;;;;;;4981136;28;20194;-92
2022/07/26 11:02:48;;;;;;;2.65;1.00;;;28.50;90.50;;;;;;4980646;28;20246;-92
2022/07/26 11:05:16;;;;;;;1.98;1.30;;;28.60;90.50;;;;;;4984384;28;20198;-92
2022/07/26 11:08:08;;;;;;;4.65;1.50;;;28.60;90.20;;;;;;4984833;28;20333;-93
2022/07/26 11:10:43;;;;;;;1.90;1.20;;;28.50;90.60;;;;;;4984819;28;20179;-92
2022/07/26 11:13:18;;;;;;;2.60;1.35;;;28.40;90.20;;;;;;4984566;28;20182;-92
2022/07/26 11:15:50;;;;;;;1.52;0.98;;;28.40;90.20;;;;;;4984825;28;20182;-93
2022/07/26 11:18:27;;;;;;;2.90;1.02;;;28.40;89.50;;;;;;4984986;28;20183;-92
2022/07/26 11:20:54;;;;;;;2.35;1.30;;;28.30;89.10;;;;;;4984974;28;20278;-93
2022/07/26 11:23:25;;;;;;;2.95;1.10;;;28.60;90.00;;;;;;4989884;28;20659;-92
2022/07/26 11:26:12;;;;;;;2.75;1.10;;;28.90;88.80;;;;;;4992923;28;20187;-93
2022/07/26 11:29:00;;;;;;;1.77;1.23;;;29.30;90.00;;;;;;4986802;28;20175;-93
2022/07/26 11:31:42;;;;;;;3.05;1.20;;;29.00;87.10;;;;;;4984726;28;20330;-93
2022/07/26 11:34:21;;;;;;;1.70;1.17;;;29.10;88.40;;;;;;4984619;28;20278;-93
2022/07/26 11:37:07;;;;;;;2.38;1.00;;;28.90;88.20;;;;;;4988902;28;20278;-93
2022/07/26 11:39:36;;;;;;;2.58;1.20;;;29.00;90.10;;;;;;5004621;28;20202;-93
2022/07/26 11:42:08;;;;;;;1.33;0.90;;;29.10;89.40;;;;;;5014756;28;20213;-92
2022/07/26 11:44:36;;;;;;;1.63;1.10;;;29.30;86.60;;;;;;5019510;28;20194;-93
2022/07/26 11:47:19;;;;;;;1.60;1.10;;;29.10;86.90;;;;;;5004755;28;20178;-93
2022/07/26 11:49:55;;;;;;;1.73;1.08;;;28.80;87.70;;;;;;5004158;28;20254;-93
2022/07/26 11:52:31;;;;;;;2.58;1.10;;;28.90;89.10;;;;;;4995872;28;20211;-93
2022/07/26 11:55:00;;;;;;;1.67;1.25;;;29.20;86.00;;;;;;5007189;28;20186;-92
2022/07/26 11:57:31;;;;;;;1.20;1.10;;;29.10;84.80;;;;;;4981799;28;20294;-92
2022/07/26 12:00:12;;;;;;;1.90;1.10;;;28.80;84.90;;;;;;4991084;28;20187;-92
2022/07/26 12:02:39;;;;;;;1.65;0.80;;;28.90;87.50;;;;;;4973084;28;20215;-92
2022/07/26 12:05:15;;;;;;;1.92;1.00;;;29.10;87.60;;;;;;5015489;28;20282;-92
2022/07/26 12:08:16;;;;;;;1.50;1.10;;;29.20;86.50;;;;;;4983106;28;20172;-92
2022/07/26 12:10:42;;;;;;;1.70;1.00;;;29.10;87.30;;;;;;4974538;28;20192;-93
2022/07/26 12:13:18;;;;;;;4.03;1.17;;;29.10;88.00;;;;;;5009328;28;20190;-93
2022/07/26 12:15:50;;;;;;;1.92;1.00;;;29.40;86.20;;;;;;4992805;28;20292;-92
2022/07/26 12:18:31;;;;;;;3.17;1.20;;;29.50;86.00;;;;;;5003979;28;20200;-93
2022/07/26 12:21:07;;;;;;;1.42;1.00;;;29.10;85.80;;;;;;4995630;28;20200;-93
2022/07/26 12:23:46;;;;;;;3.03;1.10;;;29.20;87.70;;;;;;4999264;28;20234;-92
2022/07/26 12:26:29;;;;;;;3.97;1.00;;;29.40;85.90;;;;;;5007444;28;20190;-92
2022/07/26 12:29:23;;;;;;;1.50;0.90;;;29.50;84.20;;;;;;5006874;28;20189;-93
2022/07/26 12:32:35;;;;;;;1.45;1.10;;;29.40;85.60;;;;;;4992858;28;20211;-92
2022/07/26 12:35:08;;;;;;;2.60;1.10;;;29.10;86.30;;;;;;4971636;28;20190;-93
2022/07/26 12:37:46;;;;;;;1.30;1.10;;;28.90;85.90;;;;;;4977564;28;20187;-93
2022/07/26 12:40:17;;;;;;;2.17;1.23;;;28.80;86.70;;;;;;4999945;28;20185;-93
2022/07/26 12:42:54;;;;;;;1.30;1.10;;;29.00;85.30;;;;;;4979928;28;20208;-94
2022/07/26 12:45:23;;;;;;;1.27;0.90;;;29.20;85.50;;;;;;4997813;28;20174;-93
2022/07/26 12:47:51;;;;;;;1.15;1.00;;;29.70;87.30;;;;;;4990299;28;20183;-93
2022/07/26 12:50:20;;;;;;;1.23;1.10;;;30.00;85.20;;;;;;4984038;28;20183;-93
2022/07/26 12:52:47;;;;;;;1.25;0.90;;;30.20;83.50;;;;;;4995553;28;20182;-94
2022/07/26 12:55:17;;;;;;;1.20;1.10;;;30.50;83.80;;;;;;5012695;28;20187;-93
2022/07/26 12:57:45;;;;;;;2.63;1.10;;;30.70;83.20;;;;;;4982451;28;20180;-93
2022/07/26 13:00:13;;;;;;;0.98;0.90;;;30.90;79.10;;;;;;4996111;28;20183;-93
2022/07/26 13:02:46;;;;;;;1.67;0.90;;;30.80;79.80;;;;;;4997197;28;20215;-93